Chicago, IL (60601)

7:24 AM CDT on August 27, 2016 (GMT -0500)
New East Side | | Change Station

Elev 0 ft 41.89 °N, 87.62 °W | Updated 2 minutes ago

Light Rain
Light Rain Mist
69.6 °F
Feels Like 69.6 °F
N
0.6
Wind Variable Wind from WSW
Gusts 1.9 mph

Today
High -- | Low -- °F
--% Chance of Precip.
Yesterday
High -- | Low -- °F
Precip. -- in
Pressure 30.07 in
Visibility 4.0 miles
Clouds Mostly Cloudy 500 ft
Mostly Cloudy 1500 ft
Overcast 11000 ft
Dew Point 66 °F
Humidity 88%
Rainfall Not available.
Snow Depth Not available.
6:11 AM 7:31 PM
Waning Crescent, 25% visible
METAR KMDW 271153Z 11003KT 4SM -RA BR BKN005 BKN015 OVC110 22/21 A3009 RMK AO2 TSE25 SLP181 P0017 60062 70065 T02170206 10222 20211 51013
Pressure 30.07 in
Visibility 4.0 miles
Clouds Mostly Cloudy 500 ft
Mostly Cloudy 1500 ft
Overcast 11000 ft
Dew Point 66 °F
Humidity 88%
Rainfall Not available.
Snow Depth Not available.
6:11 AM 7:31 PM
Waning Crescent, 25% visible
METAR KMDW 271153Z 11003KT 4SM -RA BR BKN005 BKN015 OVC110 22/21 A3009 RMK AO2 TSE25 SLP181 P0017 60062 70065 T02170206 10222 20211 51013

10-Day Weather Forecast

Almanac

Astronomy

Aug. 27, 2016 Rise Set
Actual Time
Civil Twilight
Nautical Twilight
Astronomical Twilight
Moon
Length of Visible Light
Length of Day
Tomorrow will be .
, % of the Moon is Illuminated

Today's Extremes

State Highs State Lows

Community

WunderPhotos

Upload Photos

1,935,325 photos uploaded!

WunderBlog® & News

Nearby

Air Quality

  Air Quality AQ Index Pollutant
Not available.

Snow Depth

Station Depth Elevation

Earthquake Activity

City Distance Mag. Time & Date
Minimum magnitude displayed is 2.5.

Coastal Water Temperatures

Place Temperature

Stations

Nearby Weather Stations

Station Location Temp. Windchill Dew Point Humidity Wind Precip. Elev Updated Type
                   

Watches & Warnings

There are currently no watches in effect.